Time;durP1;ratioP1;P1;durP2;ratioP2;P2;SDS_P1;SDS_P2;PMS_P1;PMS_P2;Temp;Humidity;BMP_temperature;BMP_pressure;BME280_temperature;BME280_humidity;BME280_pressure;Samples;Min_cycle;Max_cycle;Signal;HPM_P1;HPM_P2
2024/02/19 00:00:19;;;;;;;12.10;10.00;;;9.20;99.90;;;;;;5090326;28;20169;-72
2024/02/19 00:02:44;;;;;;;22.83;12.53;;;9.20;99.90;;;;;;5091485;28;20260;-73
2024/02/19 00:05:10;;;;;;;19.50;12.17;;;9.20;99.90;;;;;;5091458;28;20248;-72
2024/02/19 00:07:35;;;;;;;20.27;11.97;;;9.20;99.90;;;;;;5090908;28;20604;-72
2024/02/19 00:10:01;;;;;;;16.23;11.93;;;9.20;99.90;;;;;;5091065;28;20170;-72
2024/02/19 00:12:27;;;;;;;11.23;9.63;;;9.20;99.90;;;;;;5090416;28;20174;-71
2024/02/19 00:14:53;;;;;;;15.27;11.60;;;9.10;99.90;;;;;;5112125;22;20574;-72
2024/02/19 00:17:18;;;;;;;13.40;11.37;;;9.20;99.90;;;;;;5111435;28;20645;-72
2024/02/19 00:19:44;;;;;;;17.40;9.97;;;9.10;99.90;;;;;;5114244;27;20218;-73
2024/02/19 00:22:09;;;;;;;18.03;10.83;;;9.10;99.90;;;;;;5131705;27;20206;-72
2024/02/19 00:24:35;;;;;;;11.63;10.43;;;9.10;99.90;;;;;;5127596;27;20193;-72
2024/02/19 00:27:02;;;;;;;21.93;12.00;;;9.10;99.90;;;;;;5111125;28;20540;-73
2024/02/19 00:29:27;;;;;;;19.77;10.23;;;9.10;99.90;;;;;;5111220;28;20176;-73
2024/02/19 00:31:53;;;;;;;15.47;11.63;;;9.00;99.90;;;;;;5111072;28;20172;-71
2024/02/19 00:34:19;;;;;;;16.53;9.63;;;9.00;99.90;;;;;;5111056;28;20279;-71
2024/02/19 00:36:44;;;;;;;17.30;11.57;;;9.00;99.90;;;;;;5110899;28;20165;-73
2024/02/19 00:39:10;;;;;;;15.30;10.03;;;9.00;99.90;;;;;;5110975;28;20164;-73
2024/02/19 00:41:36;;;;;;;21.77;10.53;;;9.00;99.90;;;;;;5111077;28;20205;-73
2024/02/19 00:44:02;;;;;;;18.93;9.90;;;9.00;99.90;;;;;;5111044;28;20171;-73
2024/02/19 00:46:28;;;;;;;19.03;10.33;;;9.00;99.90;;;;;;5092606;28;20681;-73
2024/02/19 00:48:53;;;;;;;18.87;9.83;;;8.90;99.90;;;;;;5110997;28;20583;-72
2024/02/19 00:51:19;;;;;;;13.50;8.57;;;8.90;99.90;;;;;;5111059;28;20420;-72
2024/02/19 00:53:45;;;;;;;20.93;9.73;;;8.90;99.90;;;;;;5110847;28;20220;-72
2024/02/19 00:56:10;;;;;;;20.47;8.83;;;8.90;99.90;;;;;;5110553;28;20743;-71
2024/02/19 00:58:36;;;;;;;8.90;7.30;;;8.80;99.90;;;;;;5110813;28;20165;-74
2024/02/19 01:01:02;;;;;;;15.07;8.20;;;8.80;99.90;;;;;;5110759;28;20161;-72
2024/02/19 01:03:27;;;;;;;23.07;8.60;;;8.80;99.90;;;;;;5110694;28;20177;-72
2024/02/19 01:05:53;;;;;;;15.27;8.53;;;8.90;99.90;;;;;;5110932;28;20204;-72
2024/02/19 01:08:19;;;;;;;16.57;8.33;;;8.90;99.90;;;;;;5110433;28;20645;-74
2024/02/19 01:10:44;;;;;;;21.73;8.30;;;8.90;99.90;;;;;;5110804;28;20256;-72
2024/02/19 01:13:10;;;;;;;13.10;7.80;;;8.90;99.90;;;;;;5110082;28;20192;-71
2024/02/19 01:15:36;;;;;;;22.80;7.53;;;8.90;99.90;;;;;;5110600;28;20230;-72
2024/02/19 01:18:02;;;;;;;15.63;7.73;;;8.90;99.90;;;;;;5110902;28;20247;-72
2024/02/19 01:20:28;;;;;;;16.47;7.93;;;8.90;99.90;;;;;;5110730;28;20180;-72
2024/02/19 01:22:53;;;;;;;16.23;7.90;;;8.90;99.90;;;;;;5110513;28;20162;-71
2024/02/19 01:25:22;;;;;;;24.97;8.13;;;8.90;99.90;;;;;;5112146;28;20207;-72
2024/02/19 01:27:47;;;;;;;22.73;8.60;;;8.90;99.90;;;;;;5094293;28;20180;-71
2024/02/19 01:30:13;;;;;;;26.27;8.37;;;8.90;99.90;;;;;;5094137;28;20240;-71
2024/02/19 01:32:39;;;;;;;8.73;6.73;;;8.90;99.90;;;;;;5093928;28;20545;-71
2024/02/19 01:35:08;;;;;;;23.13;8.27;;;8.90;99.90;;;;;;5093936;28;20201;-72
2024/02/19 01:37:34;;;;;;;15.93;7.80;;;8.90;99.90;;;;;;5093947;28;20252;-71
2024/02/19 01:40:00;;;;;;;15.33;7.47;;;8.90;99.90;;;;;;5094030;28;20252;-71
2024/02/19 01:42:25;;;;;;;17.30;7.60;;;9.00;99.90;;;;;;5112971;28;20252;-72
2024/02/19 01:44:51;;;;;;;18.80;9.00;;;9.00;99.90;;;;;;5114212;28;20195;-72
2024/02/19 01:47:17;;;;;;;19.63;7.80;;;8.90;99.90;;;;;;5114079;28;20636;-71
2024/02/19 01:49:44;;;;;;;17.20;8.07;;;9.00;99.90;;;;;;5113927;28;20255;-72
2024/02/19 01:52:10;;;;;;;16.47;8.77;;;9.00;99.90;;;;;;5113982;28;20184;-72
2024/02/19 01:54:38;;;;;;;15.57;7.93;;;8.90;99.90;;;;;;5113712;28;20209;-71
2024/02/19 01:57:04;;;;;;;16.37;7.47;;;8.90;99.90;;;;;;5093619;28;20172;-71
2024/02/19 01:59:31;;;;;;;15.17;7.10;;;8.90;99.90;;;;;;5093524;28;20173;-71
2024/02/19 02:01:58;;;;;;;14.07;7.20;;;8.90;99.90;;;;;;5103077;28;20276;-72
2024/02/19 02:04:25;;;;;;;10.80;7.33;;;8.90;99.90;;;;;;5114071;28;20694;-71
2024/02/19 02:06:51;;;;;;;12.73;7.70;;;8.90;99.90;;;;;;5113943;28;20252;-70
2024/02/19 02:09:17;;;;;;;14.63;7.43;;;8.90;99.90;;;;;;5095233;28;20375;-71
2024/02/19 02:11:43;;;;;;;21.03;7.43;;;9.00;99.90;;;;;;5113446;28;20193;-72
2024/02/19 02:14:08;;;;;;;20.97;7.67;;;9.00;99.90;;;;;;5095359;28;20200;-71
2024/02/19 02:16:34;;;;;;;13.70;6.10;;;8.90;99.90;;;;;;5095347;28;20237;-72
2024/02/19 02:19:00;;;;;;;9.83;5.90;;;9.00;99.90;;;;;;5113243;28;20175;-72
2024/02/19 02:21:25;;;;;;;9.30;5.37;;;9.00;99.90;;;;;;5113604;28;20754;-72
2024/02/19 02:23:51;;;;;;;15.00;5.43;;;8.90;99.90;;;;;;5113310;28;20180;-71
2024/02/19 02:26:17;;;;;;;16.03;6.00;;;9.00;99.90;;;;;;5113429;28;20204;-71
2024/02/19 02:28:42;;;;;;;12.30;6.97;;;9.00;99.90;;;;;;5113257;28;20192;-71
2024/02/19 02:31:08;;;;;;;9.70;6.17;;;9.00;99.90;;;;;;5113275;28;20176;-72
2024/02/19 02:33:34;;;;;;;11.10;6.67;;;9.00;99.90;;;;;;5113010;28;20283;-70
2024/02/19 02:36:00;;;;;;;12.07;5.83;;;9.00;99.90;;;;;;5112963;28;20238;-71
2024/02/19 02:38:26;;;;;;;13.13;6.73;;;9.10;99.90;;;;;;5094941;28;20600;-71
2024/02/19 02:40:53;;;;;;;9.87;6.83;;;9.00;99.90;;;;;;5094863;28;20267;-71
2024/02/19 02:43:19;;;;;;;18.50;7.33;;;9.10;99.90;;;;;;5112999;28;20629;-72
2024/02/19 02:45:45;;;;;;;13.77;6.87;;;9.10;99.90;;;;;;5112932;28;20250;-71
2024/02/19 02:48:10;;;;;;;13.20;6.73;;;9.10;99.90;;;;;;5094881;28;20172;-71
2024/02/19 02:50:36;;;;;;;11.70;6.33;;;9.00;99.90;;;;;;5112988;28;20168;-71
2024/02/19 02:53:01;;;;;;;17.07;6.13;;;9.00;99.90;;;;;;5112884;28;20809;-71
2024/02/19 02:55:27;;;;;;;15.67;5.80;;;9.00;99.90;;;;;;5112806;28;20194;-71
2024/02/19 02:57:52;;;;;;;15.23;7.03;;;9.00;99.90;;;;;;5112850;28;20168;-71
2024/02/19 03:00:18;;;;;;;15.33;6.47;;;9.10;99.90;;;;;;5112987;28;20220;-71
2024/02/19 03:02:44;;;;;;;13.67;6.77;;;9.00;99.90;;;;;;5112664;28;20657;-72
2024/02/19 03:05:10;;;;;;;9.70;5.70;;;9.00;99.90;;;;;;5112909;28;20185;-70
2024/02/19 03:07:35;;;;;;;14.40;6.10;;;9.00;99.90;;;;;;5112319;28;20181;-71
2024/02/19 03:10:01;;;;;;;6.57;5.33;;;9.00;99.90;;;;;;5112645;28;20646;-71
2024/02/19 03:12:26;;;;;;;11.17;5.00;;;8.90;99.90;;;;;;5111891;28;20228;-72
2024/02/19 03:14:52;;;;;;;15.60;5.83;;;9.00;99.90;;;;;;5111935;28;20235;-72
2024/02/19 03:17:18;;;;;;;12.60;5.50;;;9.00;99.90;;;;;;5112236;28;20167;-71
2024/02/19 03:19:43;;;;;;;10.13;5.10;;;8.90;99.90;;;;;;5112528;28;20173;-73
2024/02/19 03:22:10;;;;;;;11.90;5.10;;;8.80;99.90;;;;;;5112623;28;20221;-72
2024/02/19 03:24:36;;;;;;;15.40;5.33;;;8.80;99.90;;;;;;5112793;28;20723;-72
2024/02/19 03:27:04;;;;;;;12.43;5.13;;;8.80;99.90;;;;;;5112846;28;20160;-70
2024/02/19 03:29:30;;;;;;;17.60;6.20;;;8.80;99.90;;;;;;5112748;28;20215;-72
2024/02/19 03:31:56;;;;;;;8.40;5.53;;;8.80;99.90;;;;;;5112232;28;20234;-71
2024/02/19 03:34:22;;;;;;;9.20;5.23;;;8.80;99.90;;;;;;5112541;28;20673;-71
2024/02/19 03:36:49;;;;;;;9.83;4.73;;;8.80;99.90;;;;;;5112980;28;20218;-72
2024/02/19 03:39:15;;;;;;;10.50;4.90;;;8.80;99.90;;;;;;5112457;28;20172;-72
2024/02/19 03:41:41;;;;;;;9.60;4.80;;;8.90;99.90;;;;;;5112558;28;20169;-72
2024/02/19 03:44:06;;;;;;;10.23;4.83;;;8.90;99.90;;;;;;5112459;28;20169;-72
2024/02/19 03:46:32;;;;;;;9.63;5.37;;;8.90;99.90;;;;;;5112098;28;20200;-72
2024/02/19 03:48:58;;;;;;;8.37;4.90;;;8.90;99.90;;;;;;5111785;28;20169;-73
2024/02/19 03:51:23;;;;;;;8.57;5.13;;;9.00;99.90;;;;;;5112020;28;20544;-74
2024/02/19 03:53:49;;;;;;;8.03;5.23;;;9.00;99.90;;;;;;5112203;28;20196;-72
2024/02/19 03:56:15;;;;;;;15.93;6.43;;;9.00;99.90;;;;;;5112657;28;20329;-71
2024/02/19 03:58:40;;;;;;;13.30;5.73;;;9.00;99.90;;;;;;5112162;28;20175;-72
2024/02/19 04:01:06;;;;;;;10.70;5.67;;;9.00;99.90;;;;;;5111983;28;20172;-72
2024/02/19 04:03:32;;;;;;;7.60;5.43;;;9.00;99.90;;;;;;5112594;28;20183;-72
2024/02/19 04:05:57;;;;;;;8.67;5.93;;;9.10;99.90;;;;;;5112766;28;20196;-72
2024/02/19 04:08:23;;;;;;;11.77;7.17;;;9.10;99.90;;;;;;5093880;28;20508;-71
2024/02/19 04:10:49;;;;;;;14.60;5.93;;;9.10;99.90;;;;;;5112311;28;20168;-72
2024/02/19 04:13:14;;;;;;;16.07;7.17;;;9.10;99.90;;;;;;5094280;28;20197;-72
2024/02/19 04:15:40;;;;;;;14.93;6.83;;;9.10;99.90;;;;;;5112234;28;20270;-72
2024/02/19 04:18:06;;;;;;;16.00;7.00;;;9.10;99.90;;;;;;5112684;28;20698;-72
2024/02/19 04:20:31;;;;;;;15.97;6.80;;;9.10;99.90;;;;;;5094309;28;20265;-72
2024/02/19 04:22:57;;;;;;;18.00;6.20;;;9.10;99.90;;;;;;5112305;28;20222;-72
2024/02/19 04:25:23;;;;;;;17.43;6.70;;;9.10;99.90;;;;;;5112823;28;20188;-71
2024/02/19 04:27:49;;;;;;;10.50;6.20;;;9.00;99.90;;;;;;5113405;28;20168;-72
2024/02/19 04:30:15;;;;;;;13.60;5.80;;;9.10;99.90;;;;;;5095319;28;20168;-72
2024/02/19 04:32:40;;;;;;;16.37;6.53;;;9.10;99.90;;;;;;5113708;28;20181;-72
2024/02/19 04:35:06;;;;;;;14.20;5.20;;;9.10;99.90;;;;;;5114340;28;20212;-71
2024/02/19 04:37:32;;;;;;;14.50;6.23;;;9.10;99.90;;;;;;5114730;28;20161;-72
2024/02/19 04:39:57;;;;;;;14.93;5.23;;;9.10;99.90;;;;;;5115516;28;20195;-72
2024/02/19 04:42:23;;;;;;;10.33;5.30;;;9.10;99.90;;;;;;5114427;28;20168;-71
2024/02/19 04:44:49;;;;;;;11.10;5.93;;;9.10;99.90;;;;;;5118442;28;20223;-71
2024/02/19 04:47:14;;;;;;;14.03;5.77;;;9.10;99.90;;;;;;5117373;28;20596;-72
2024/02/19 04:49:40;;;;;;;11.87;5.43;;;9.10;99.90;;;;;;5120710;28;20169;-72
2024/02/19 04:52:06;;;;;;;16.07;5.13;;;9.10;99.90;;;;;;5119070;28;20168;-72
2024/02/19 04:54:31;;;;;;;8.67;5.40;;;9.10;99.90;;;;;;5115878;28;20673;-72
2024/02/19 04:56:57;;;;;;;13.33;5.17;;;9.10;99.90;;;;;;5112242;28;20177;-72
2024/02/19 04:59:23;;;;;;;16.67;5.40;;;9.10;99.90;;;;;;5114043;28;20195;-72
2024/02/19 05:01:50;;;;;;;9.77;4.63;;;9.10;99.90;;;;;;5115873;28;20185;-72
2024/02/19 05:04:16;;;;;;;10.60;5.13;;;9.10;99.90;;;;;;5116169;28;20169;-71
2024/02/19 05:06:41;;;;;;;9.70;4.40;;;9.10;99.90;;;;;;5116277;28;20188;-72
2024/02/19 05:09:07;;;;;;;13.03;5.00;;;9.10;99.90;;;;;;5116258;28;20177;-72
2024/02/19 05:11:33;;;;;;;8.83;4.90;;;9.20;99.90;;;;;;5115886;28;20169;-72
2024/02/19 05:13:59;;;;;;;8.53;4.90;;;9.10;99.90;;;;;;5097575;28;20208;-72
2024/02/19 05:16:24;;;;;;;9.77;5.53;;;9.10;99.90;;;;;;5115858;28;20288;-72
2024/02/19 05:18:50;;;;;;;9.77;4.50;;;9.10;99.90;;;;;;5115543;28;20207;-72
2024/02/19 05:21:16;;;;;;;10.30;5.57;;;9.10;99.90;;;;;;5097271;28;20181;-72
2024/02/19 05:23:41;;;;;;;13.53;5.00;;;9.10;99.90;;;;;;5115739;28;20698;-72
2024/02/19 05:26:07;;;;;;;11.20;4.43;;;9.10;99.90;;;;;;5115656;28;20204;-72
2024/02/19 05:28:33;;;;;;;15.90;4.60;;;9.10;99.90;;;;;;5115824;28;20618;-72
2024/02/19 05:30:58;;;;;;;12.33;5.20;;;9.10;99.90;;;;;;5098905;28;20177;-72
2024/02/19 05:33:24;;;;;;;10.53;4.57;;;9.10;99.90;;;;;;5116322;28;20705;-72
2024/02/19 05:35:49;;;;;;;13.67;5.80;;;9.10;99.90;;;;;;5096649;28;20235;-72
2024/02/19 05:38:15;;;;;;;9.73;5.17;;;9.10;99.90;;;;;;5115318;28;20211;-72
2024/02/19 05:40:41;;;;;;;11.07;4.93;;;9.10;99.90;;;;;;5114675;28;20251;-72
2024/02/19 05:43:06;;;;;;;10.50;4.73;;;9.10;99.90;;;;;;5114678;28;20173;-72
2024/02/19 05:45:32;;;;;;;7.40;4.23;;;9.10;99.90;;;;;;5114747;28;20325;-72
2024/02/19 05:47:59;;;;;;;9.30;4.87;;;9.10;99.90;;;;;;5114531;28;20694;-72
2024/02/19 05:50:26;;;;;;;8.20;4.47;;;9.10;99.90;;;;;;5114787;28;20183;-71
2024/02/19 05:52:52;;;;;;;6.77;4.00;;;9.10;99.90;;;;;;5114871;28;20566;-72
2024/02/19 05:55:18;;;;;;;11.37;4.93;;;9.10;99.90;;;;;;5114258;28;20204;-72
2024/02/19 05:57:43;;;;;;;12.07;4.97;;;9.20;99.90;;;;;;5114610;28;20602;-72
2024/02/19 06:00:13;;;;;;;11.70;4.60;;;9.20;99.90;;;;;;5096518;28;20176;-72
2024/02/19 06:02:40;;;;;;;9.47;4.60;;;9.20;99.90;;;;;;5114126;28;20176;-72
2024/02/19 06:05:07;;;;;;;9.93;4.77;;;9.20;99.90;;;;;;5114069;28;20197;-72
2024/02/19 06:07:32;;;;;;;15.27;5.10;;;9.20;99.90;;;;;;5113925;28;20255;-72
2024/02/19 06:09:58;;;;;;;9.70;5.53;;;9.20;99.90;;;;;;5113708;28;20255;-72
2024/02/19 06:12:24;;;;;;;11.00;4.90;;;9.20;99.90;;;;;;5113336;28;20288;-72
2024/02/19 06:14:50;;;;;;;13.30;5.00;;;9.10;99.90;;;;;;5137498;22;20284;-71
2024/02/19 06:17:16;;;;;;;11.57;5.60;;;9.20;99.90;;;;;;5114219;28;20169;-71
2024/02/19 06:19:41;;;;;;;19.87;5.07;;;9.20;99.90;;;;;;5114094;28;20173;-71
2024/02/19 06:22:07;;;;;;;9.40;4.73;;;9.20;99.90;;;;;;5114195;28;20633;-71
2024/02/19 06:24:32;;;;;;;9.27;6.37;;;9.10;99.90;;;;;;5114064;28;20311;-71
2024/02/19 06:26:58;;;;;;;11.43;5.23;;;9.10;99.90;;;;;;5114178;28;20181;-71
2024/02/19 06:29:24;;;;;;;10.70;5.30;;;9.20;99.90;;;;;;5113800;28;20177;-71
2024/02/19 06:31:52;;;;;;;10.77;5.40;;;9.20;99.90;;;;;;5113972;28;20200;-71
2024/02/19 06:34:17;;;;;;;10.07;5.17;;;9.10;99.90;;;;;;5113779;28;20644;-71
2024/02/19 06:36:43;;;;;;;9.40;5.47;;;9.20;99.90;;;;;;5095518;28;20283;-71
2024/02/19 06:39:08;;;;;;;16.03;6.13;;;9.20;99.90;;;;;;5114331;28;20175;-71
2024/02/19 06:41:34;;;;;;;16.67;6.23;;;9.20;99.90;;;;;;5113991;28;20189;-71
2024/02/19 06:44:00;;;;;;;14.93;5.83;;;9.20;99.90;;;;;;5113618;28;20663;-71
2024/02/19 06:46:25;;;;;;;10.00;5.23;;;9.20;99.90;;;;;;5113568;28;20192;-71
2024/02/19 06:48:51;;;;;;;11.03;5.17;;;9.20;99.90;;;;;;5113281;28;20181;-71
2024/02/19 06:51:17;;;;;;;19.00;7.67;;;9.30;99.90;;;;;;5113443;28;20556;-71
2024/02/19 06:53:43;;;;;;;10.10;4.57;;;9.30;99.90;;;;;;5112885;28;20204;-71
2024/02/19 06:56:09;;;;;;;15.30;5.73;;;9.30;99.90;;;;;;5113258;28;20201;-71
2024/02/19 06:58:34;;;;;;;10.70;5.30;;;9.30;99.90;;;;;;5113301;28;20176;-71
2024/02/19 07:01:04;;;;;;;15.20;5.67;;;9.40;99.90;;;;;;5113192;28;20234;-71
2024/02/19 07:03:29;;;;;;;18.57;10.03;;;9.40;99.90;;;;;;5111143;28;20185;-72
2024/02/19 07:05:55;;;;;;;33.73;18.43;;;9.50;99.90;;;;;;5112929;28;20252;-73
2024/02/19 07:08:20;;;;;;;17.10;8.50;;;9.50;99.90;;;;;;5094357;28;20180;-72
2024/02/19 07:10:46;;;;;;;9.47;5.67;;;9.50;99.90;;;;;;5112748;28;20681;-72
2024/02/19 07:13:11;;;;;;;11.67;5.53;;;9.50;99.90;;;;;;5112072;28;20187;-72
2024/02/19 07:15:37;;;;;;;15.50;7.13;;;9.50;99.90;;;;;;5112717;28;20200;-73
2024/02/19 07:18:03;;;;;;;12.43;5.40;;;9.50;99.90;;;;;;5113684;28;20248;-73
2024/02/19 07:20:28;;;;;;;8.77;5.20;;;9.40;99.90;;;;;;5114788;28;20173;-73
2024/02/19 07:22:54;;;;;;;7.57;4.93;;;9.40;99.90;;;;;;5112455;28;20580;-72
2024/02/19 07:25:19;;;;;;;10.27;5.47;;;9.40;99.90;;;;;;5113716;28;20199;-73
2024/02/19 07:27:45;;;;;;;15.53;6.73;;;9.50;99.90;;;;;;5114030;28;20187;-72
2024/02/19 07:30:12;;;;;;;9.37;5.63;;;9.40;99.90;;;;;;5113451;28;20188;-72
2024/02/19 07:32:37;;;;;;;9.30;5.73;;;9.50;99.90;;;;;;5093753;28;20173;-72
2024/02/19 07:35:04;;;;;;;14.60;5.97;;;9.50;99.90;;;;;;5093751;28;20231;-73
2024/02/19 07:37:30;;;;;;;11.70;5.67;;;9.50;99.90;;;;;;5094397;28;20530;-72
2024/02/19 07:39:55;;;;;;;11.53;6.30;;;9.60;99.90;;;;;;5094203;28;20189;-72
2024/02/19 07:42:21;;;;;;;9.27;5.30;;;9.60;99.90;;;;;;5095801;28;20626;-72
2024/02/19 07:44:47;;;;;;;14.23;5.80;;;9.70;99.90;;;;;;5094915;28;20197;-72
2024/02/19 07:47:12;;;;;;;14.43;5.80;;;9.70;99.90;;;;;;5096349;28;20184;-71
2024/02/19 07:49:38;;;;;;;16.43;6.47;;;9.70;99.90;;;;;;5114139;28;20275;-73
2024/02/19 07:52:04;;;;;;;16.60;6.43;;;9.70;99.90;;;;;;5114400;28;20510;-72
2024/02/19 07:54:29;;;;;;;21.13;6.67;;;9.70;99.90;;;;;;5117329;28;20283;-72
2024/02/19 07:56:56;;;;;;;14.33;5.80;;;9.80;99.90;;;;;;5117209;28;20192;-72
2024/02/19 07:59:22;;;;;;;9.47;5.53;;;9.80;99.90;;;;;;5118204;28;20165;-73
2024/02/19 08:01:47;;;;;;;13.50;5.50;;;9.90;99.90;;;;;;5097053;28;20280;-73
2024/02/19 08:04:13;;;;;;;12.03;6.10;;;9.90;99.90;;;;;;5115307;28;20208;-72
2024/02/19 08:06:39;;;;;;;9.80;5.67;;;9.90;99.90;;;;;;5115168;28;20202;-72
2024/02/19 08:09:05;;;;;;;14.40;6.33;;;9.90;99.90;;;;;;5113802;28;20246;-72
2024/02/19 08:11:31;;;;;;;16.27;5.80;;;9.90;99.90;;;;;;5114187;28;20212;-72
2024/02/19 08:13:57;;;;;;;11.13;6.43;;;10.00;99.90;;;;;;5114347;28;20196;-72
2024/02/19 08:16:24;;;;;;;11.63;5.20;;;10.10;99.90;;;;;;5114727;28;20207;-72
2024/02/19 08:18:49;;;;;;;23.90;7.10;;;10.10;99.90;;;;;;5114846;28;20468;-72
2024/02/19 08:21:15;;;;;;;10.73;6.13;;;10.20;99.90;;;;;;5114496;28;20180;-72
2024/02/19 08:23:40;;;;;;;14.30;5.80;;;10.20;99.90;;;;;;5114466;28;20226;-73
2024/02/19 08:26:06;;;;;;;16.13;5.50;;;10.30;99.90;;;;;;5114821;28;20271;-72
2024/02/19 08:28:32;;;;;;;14.90;6.17;;;10.40;99.90;;;;;;5114466;28;20677;-72
2024/02/19 08:30:57;;;;;;;17.10;7.33;;;10.40;99.90;;;;;;5115169;28;20164;-72
2024/02/19 08:33:23;;;;;;;20.57;6.50;;;10.50;99.90;;;;;;5113806;28;20200;-73
2024/02/19 08:35:50;;;;;;;17.03;6.13;;;10.50;99.90;;;;;;5112789;28;20204;-72
2024/02/19 08:38:15;;;;;;;16.67;6.73;;;10.50;99.90;;;;;;5113786;28;20542;-72
2024/02/19 08:40:41;;;;;;;11.17;6.70;;;10.60;99.90;;;;;;5113768;28;20202;-72
2024/02/19 08:43:10;;;;;;;17.73;7.07;;;10.60;99.90;;;;;;5113983;28;20205;-72
2024/02/19 08:45:36;;;;;;;18.13;7.07;;;10.70;99.90;;;;;;5113178;28;20211;-71
2024/02/19 08:48:02;;;;;;;18.27;6.60;;;10.80;99.90;;;;;;5113370;28;20173;-71
2024/02/19 08:50:27;;;;;;;16.50;6.83;;;10.80;99.90;;;;;;5114148;28;20176;-72
2024/02/19 08:52:53;;;;;;;10.13;6.27;;;10.90;99.90;;;;;;5110388;28;20180;-72
2024/02/19 08:55:18;;;;;;;17.07;6.70;;;10.90;99.90;;;;;;5093491;28;20213;-72
2024/02/19 08:57:44;;;;;;;21.23;6.50;;;11.00;99.90;;;;;;5093467;28;20252;-72
2024/02/19 09:00:11;;;;;;;14.43;6.10;;;11.00;99.90;;;;;;5105319;28;20181;-72
2024/02/19 09:02:38;;;;;;;10.77;5.90;;;11.10;99.90;;;;;;5113117;28;20177;-72
2024/02/19 09:05:04;;;;;;;11.80;6.33;;;11.20;99.90;;;;;;5113467;28;20249;-72
2024/02/19 09:07:31;;;;;;;11.77;7.33;;;11.20;99.90;;;;;;5113205;28;20177;-71
2024/02/19 09:09:57;;;;;;;14.63;7.03;;;11.30;99.90;;;;;;5111481;28;20177;-71
2024/02/19 09:12:23;;;;;;;17.27;6.63;;;11.30;99.90;;;;;;5110512;28;20196;-71
2024/02/19 09:14:49;;;;;;;14.27;6.90;;;11.40;99.90;;;;;;5110894;28;20558;-72
2024/02/19 09:17:15;;;;;;;14.87;7.77;;;11.40;99.90;;;;;;5111272;28;20323;-72
2024/02/19 09:19:41;;;;;;;18.97;6.53;;;11.40;99.90;;;;;;5112214;28;20212;-71
2024/02/19 09:22:07;;;;;;;11.77;5.97;;;11.60;99.90;;;;;;5114613;28;20528;-71
2024/02/19 09:24:33;;;;;;;18.90;6.83;;;11.60;99.90;;;;;;5092888;28;20180;-70
2024/02/19 09:26:58;;;;;;;13.47;6.97;;;11.80;99.90;;;;;;5110046;28;20180;-71
2024/02/19 09:29:24;;;;;;;21.17;7.40;;;11.70;99.90;;;;;;5092542;28;20177;-71
2024/02/19 09:31:50;;;;;;;13.57;6.90;;;11.70;99.90;;;;;;5110476;28;20195;-70
2024/02/19 09:34:16;;;;;;;22.57;8.33;;;11.70;99.90;;;;;;5111018;28;20208;-70
2024/02/19 09:36:45;;;;;;;16.53;8.60;;;11.80;99.90;;;;;;5110645;28;20204;-70
2024/02/19 09:39:11;;;;;;;19.60;7.87;;;11.90;99.90;;;;;;5092551;28;20657;-71
2024/02/19 09:41:38;;;;;;;14.27;7.17;;;12.00;99.90;;;;;;5110935;28;20195;-70
2024/02/19 09:44:04;;;;;;;13.90;7.90;;;12.10;99.90;;;;;;5110741;28;20655;-71
2024/02/19 09:46:30;;;;;;;16.70;7.60;;;12.30;99.90;;;;;;5112604;28;20223;-71
2024/02/19 09:49:00;;;;;;;17.97;7.67;;;12.50;99.90;;;;;;5114550;28;20231;-71
2024/02/19 09:51:29;;;;;;;16.47;7.23;;;12.70;99.90;;;;;;5114293;28;20184;-70
2024/02/19 09:53:55;;;;;;;15.20;7.80;;;12.90;99.90;;;;;;5114063;28;20323;-71
2024/02/19 09:56:26;;;;;;;16.77;8.10;;;13.10;1.00;;;;;;5114330;28;20275;-73
2024/02/19 09:58:52;;;;;;;10.40;6.80;;;13.30;1.00;;;;;;5114178;28;20173;-71
2024/02/19 10:01:18;;;;;;;14.33;7.50;;;13.50;99.90;;;;;;5114556;28;20625;-71
2024/02/19 10:03:44;;;;;;;15.80;7.27;;;13.50;1.00;;;;;;5113889;28;20202;-71
2024/02/19 10:06:09;;;;;;;16.77;8.07;;;13.50;1.00;;;;;;5114065;28;20200;-71
2024/02/19 10:08:35;;;;;;;11.33;7.13;;;13.50;1.00;;;;;;5113884;28;20641;-73
2024/02/19 10:11:08;;;;;;;11.50;7.07;;;13.60;1.00;;;;;;5114265;28;20180;-71
2024/02/19 10:13:36;;;;;;;15.07;7.10;;;13.70;1.00;;;;;;5113596;28;20223;-71
2024/02/19 10:16:05;;;;;;;16.00;8.13;;;13.80;1.00;;;;;;5118579;28;20208;-72
2024/02/19 10:18:31;;;;;;;11.60;6.33;;;13.70;1.00;;;;;;5117928;28;20179;-72
2024/02/19 10:20:58;;;;;;;16.00;7.03;;;13.70;1.00;;;;;;5099011;28;20169;-73
2024/02/19 10:23:25;;;;;;;9.80;6.43;;;13.60;1.00;;;;;;5116554;28;20248;-72
2024/02/19 10:25:51;;;;;;;11.10;6.53;;;13.30;1.00;;;;;;5118818;28;20204;-72
2024/02/19 10:28:20;;;;;;;15.20;7.63;;;13.20;1.00;;;;;;5117342;28;20168;-72
2024/02/19 10:30:45;;;;;;;13.60;7.83;;;13.10;1.00;;;;;;5117391;28;20169;-71
2024/02/19 10:33:11;;;;;;;14.47;6.73;;;13.00;1.00;;;;;;5115567;28;20596;-72
2024/02/19 10:35:37;;;;;;;15.63;7.43;;;12.90;1.00;;;;;;5116110;28;20208;-71
2024/02/19 10:38:02;;;;;;;12.37;7.67;;;12.70;1.00;;;;;;5117471;28;20629;-71
2024/02/19 10:40:28;;;;;;;18.77;7.77;;;12.60;1.00;;;;;;5116096;28;20189;-71
2024/02/19 10:42:55;;;;;;;14.93;8.00;;;12.50;1.00;;;;;;5118140;28;20548;-71
2024/02/19 10:45:22;;;;;;;18.50;9.13;;;12.40;26.80;;;;;;5120400;28;20277;-72
2024/02/19 10:47:52;;;;;;;20.53;8.70;;;12.40;99.90;;;;;;5100347;28;21310;-72
2024/02/19 10:50:18;;;;;;;13.93;7.70;;;12.40;99.90;;;;;;5119419;28;20536;-71
2024/02/19 10:52:45;;;;;;;17.30;9.30;;;12.40;99.90;;;;;;5117380;28;20169;-72
2024/02/19 10:55:22;;;;;;;20.90;9.90;;;12.40;99.90;;;;;;5115688;28;20245;-72
2024/02/19 10:57:53;;;;;;;13.03;8.73;;;12.30;99.90;;;;;;5117295;28;20247;-72
2024/02/19 11:00:27;;;;;;;18.43;9.00;;;12.40;99.90;;;;;;5117670;28;20516;-72
2024/02/19 11:03:15;;;;;;;17.37;9.90;;;12.50;99.90;;;;;;5115557;28;20243;-72
2024/02/19 11:05:45;;;;;;;18.40;9.70;;;12.60;99.90;;;;;;5115182;28;20219;-73
2024/02/19 11:08:21;;;;;;;17.07;9.43;;;12.80;99.90;;;;;;5115414;28;20210;-71
2024/02/19 11:10:48;;;;;;;21.43;8.87;;;12.90;9.90;;;;;;5113956;28;20718;-71
2024/02/19 11:13:18;;;;;;;18.20;9.27;;;13.00;1.00;;;;;;5113499;28;20645;-71
2024/02/19 11:15:44;;;;;;;15.93;9.10;;;13.10;1.00;;;;;;5114000;28;20197;-74
2024/02/19 11:18:14;;;;;;;16.83;8.83;;;13.20;1.00;;;;;;5114323;28;20169;-71
2024/02/19 11:20:39;;;;;;;17.13;8.97;;;13.40;1.00;;;;;;5115551;28;20153;-71
2024/02/19 11:23:05;;;;;;;16.53;9.20;;;13.50;1.00;;;;;;5117224;28;20192;-73
2024/02/19 11:25:31;;;;;;;21.23;9.10;;;13.50;1.00;;;;;;5118869;28;20276;-71
2024/02/19 11:27:58;;;;;;;19.40;9.00;;;13.60;1.00;;;;;;5117047;28;20634;-73
2024/02/19 11:30:25;;;;;;;22.73;9.83;;;13.60;1.00;;;;;;5112835;28;20514;-72
2024/02/19 11:33:08;;;;;;;14.27;7.20;;;13.60;1.00;;;;;;5112277;28;20720;-72
2024/02/19 11:35:34;;;;;;;17.07;8.87;;;13.40;1.00;;;;;;5112364;28;20185;-72
2024/02/19 11:38:00;;;;;;;20.00;9.10;;;13.40;1.00;;;;;;5094557;28;20186;-72
2024/02/19 11:40:31;;;;;;;12.43;8.57;;;13.30;1.00;;;;;;5112518;28;20176;-72
2024/02/19 11:42:59;;;;;;;11.97;8.33;;;13.20;1.00;;;;;;5112194;28;20165;-72
2024/02/19 11:45:25;;;;;;;13.67;8.10;;;13.10;1.00;;;;;;5094091;28;20196;-72
2024/02/19 11:47:51;;;;;;;15.87;8.10;;;13.20;1.00;;;;;;5112483;28;20672;-72
2024/02/19 11:50:21;;;;;;;14.60;8.57;;;13.20;1.00;;;;;;5112304;28;20180;-73
2024/02/19 11:52:47;;;;;;;12.90;7.97;;;13.30;1.00;;;;;;5112105;28;20637;-72
2024/02/19 11:55:21;;;;;;;14.03;8.77;;;13.20;1.00;;;;;;5112316;28;20213;-72
2024/02/19 11:57:51;;;;;;;15.73;8.17;;;13.20;1.00;;;;;;5112012;28;20264;-72
2024/02/19 12:00:16;;;;;;;11.43;8.17;;;13.00;1.00;;;;;;5112058;28;20172;-72
2024/02/19 12:02:47;;;;;;;12.33;7.27;;;12.60;1.00;;;;;;5112439;28;20246;-72
2024/02/19 12:05:16;;;;;;;12.80;8.37;;;12.20;14.10;;;;;;5114706;28;20200;-73
2024/02/19 12:07:43;;;;;;;18.53;8.43;;;11.90;1.00;;;;;;5114413;28;20256;-73
2024/02/19 12:10:10;;;;;;;15.30;8.73;;;11.50;54.80;;;;;;5111346;28;20264;-73
2024/02/19 12:12:39;;;;;;;14.93;8.10;;;11.40;99.90;;;;;;5109606;28;20187;-73
2024/02/19 12:15:12;;;;;;;14.63;8.23;;;11.20;99.90;;;;;;5101426;28;20690;-74
2024/02/19 12:17:42;;;;;;;19.50;9.20;;;11.20;99.90;;;;;;5111668;28;20523;-73
2024/02/19 12:20:12;;;;;;;16.67;8.80;;;11.20;99.90;;;;;;5111533;28;20570;-73
2024/02/19 12:22:40;;;;;;;20.07;9.57;;;11.20;99.90;;;;;;5110927;28;20267;-73
2024/02/19 12:25:07;;;;;;;18.10;10.47;;;11.30;99.90;;;;;;5111928;28;20304;-72
2024/02/19 12:27:33;;;;;;;17.47;10.17;;;11.40;99.90;;;;;;5111634;28;20169;-72
2024/02/19 12:29:59;;;;;;;19.80;9.30;;;11.40;99.90;;;;;;5111874;28;20177;-73
2024/02/19 12:32:25;;;;;;;15.33;9.40;;;11.40;99.90;;;;;;5109966;28;20192;-73
2024/02/19 12:34:51;;;;;;;20.27;9.77;;;11.50;99.90;;;;;;5111389;28;20673;-73
2024/02/19 12:37:17;;;;;;;15.70;9.00;;;11.50;99.90;;;;;;5111724;28;20185;-73
2024/02/19 12:39:43;;;;;;;21.13;8.40;;;11.60;99.90;;;;;;5111190;28;20185;-73